Oktaha, Oklahoma
Current Conditions -  °F | °C
As of 3:53 AM on Thursday 23 Oct 2014 (Local Time) from KMKO Reporting Station
Overcast Overcast  
Wind Chill: 59°   Ceiling: 11000
Heat Index: 59°   Visibility: 10mi
Dew Point: 53°   Wind: 6mph
Humidity: 81%   Direction: 170°S
Pressure: 30.15"   Gusts: NA
Location:  35.58°N, 95.47°W
Report Text: KMKO 230853Z AUTO 17005KT 10SM FEW060 FEW080 OVC110 15/12 A3015 RMK AO2 RAE10 SLP203 P0000 60000 T01500117 53002
Loading
Personal Weather Stations






























Interactive Weather Map
Tropical Storm Tracking
New forecast layout! Learn more

10-Day Weather Forecast

Advertisements
Track Severe Weather on mobile